Time;durP1;ratioP1;P1;durP2;ratioP2;P2;SDS_P1;SDS_P2;PMS_P1;PMS_P2;Temp;Humidity;BMP_temperature;BMP_pressure;BME280_temperature;BME280_humidity;BME280_pressure;Samples;Min_cycle;Max_cycle;Signal;HPM_P1;HPM_P2
2022/03/06 00:02:28;;;;;;;106.55;49.73;;;;;;;-0.66;74.84;99617.66;4341792;80;21072;-89
2022/03/06 00:08:38;;;;;;;133.80;57.53;;;;;;;-0.68;74.92;99616.59;4344738;80;21108;-89
2022/03/06 00:14:40;;;;;;;123.38;49.13;;;;;;;-0.69;75.14;99611.51;4261049;82;21056;-90
2022/03/06 00:20:46;;;;;;;107.55;44.15;;;;;;;-0.71;75.18;99614.48;4228062;83;21061;-92
2022/03/06 00:26:49;;;;;;;123.30;49.10;;;;;;;-0.73;75.40;99610.45;4195641;83;21083;-89
2022/03/06 00:32:51;;;;;;;124.40;52.60;;;;;;;-0.73;75.68;99611.80;4202034;83;20981;-89
2022/03/06 00:38:56;;;;;;;90.65;39.27;;;;;;;-0.76;75.55;99602.97;4196657;83;22238;-90
2022/03/06 00:44:58;;;;;;;98.52;42.15;;;;;;;-0.77;75.52;99599.50;4196893;83;21659;-90
2022/03/06 00:51:15;;;;;;;128.02;52.55;;;;;;;-0.79;75.75;99602.20;4198024;83;21015;-90
2022/03/06 00:57:16;;;;;;;109.52;46.18;;;;;;;-0.81;76.23;99607.86;4197459;83;21083;-88
2022/03/06 01:03:23;;;;;;;92.27;40.13;;;;;;;-0.81;76.22;99607.05;4197101;83;21040;-91
2022/03/06 01:09:25;;;;;;;91.80;40.35;;;;;;;-0.84;76.34;99600.91;4192530;83;21567;-90
2022/03/06 01:15:27;;;;;;;85.80;39.25;;;;;;;-0.86;76.43;99600.41;4188302;83;21068;-89
2022/03/06 01:21:28;;;;;;;89.73;38.67;;;;;;;-0.86;76.59;99595.81;4192392;83;21544;-93
2022/03/06 01:27:30;;;;;;;101.30;42.43;;;;;;;-0.88;76.56;99595.33;4198037;83;21113;-91
2022/03/06 01:33:31;;;;;;;100.47;45.33;;;;;;;-0.89;76.92;99592.92;4195107;83;21047;-90
2022/03/06 01:39:39;;;;;;;106.33;43.70;;;;;;;-0.90;77.02;99593.45;4196649;83;21055;-89
2022/03/06 01:45:41;;;;;;;99.22;42.35;;;;;;;-0.90;76.99;99591.30;4195359;83;21622;-90
2022/03/06 01:51:43;;;;;;;88.05;40.55;;;;;;;-0.93;77.03;99596.72;4194207;83;21089;-89
2022/03/06 01:57:47;;;;;;;76.43;37.17;;;;;;;-0.95;77.08;99600.75;4195369;83;21421;-88
2022/03/06 02:03:49;;;;;;;96.17;39.70;;;;;;;-0.96;77.23;99599.16;4198746;83;21044;-89
2022/03/06 02:09:50;;;;;;;92.23;38.63;;;;;;;-0.96;77.49;99595.95;4195814;83;21097;-91
2022/03/06 02:15:55;;;;;;;88.52;39.18;;;;;;;-0.98;77.53;99596.77;4191567;83;21109;-90
2022/03/06 02:21:57;;;;;;;96.57;40.57;;;;;;;-0.97;77.52;99592.20;4198231;83;21716;-91
2022/03/06 02:28:02;;;;;;;96.63;41.20;;;;;;;-0.97;77.92;99598.36;4193692;83;21118;-89
2022/03/06 02:34:04;;;;;;;95.07;41.77;;;;;;;-0.98;78.17;99594.08;4196328;83;21123;-89
2022/03/06 02:40:11;;;;;;;95.83;42.13;;;;;;;-1.00;78.04;99584.15;4193264;83;21069;-89
2022/03/06 02:46:13;;;;;;;87.87;39.13;;;;;;;-0.98;78.36;99577.14;4194687;83;21438;-88
2022/03/06 02:52:16;;;;;;;74.27;34.13;;;;;;;-0.99;78.17;99584.95;4196266;83;21119;-90
2022/03/06 02:58:17;;;;;;;77.97;35.97;;;;;;;-1.02;78.10;99581.50;4191980;83;21110;-89
2022/03/06 03:04:19;;;;;;;76.77;36.30;;;;;;;-1.03;78.49;99581.22;4192721;83;21129;-89
2022/03/06 03:10:23;;;;;;;73.13;36.30;;;;;;;-1.04;78.52;99572.91;4195128;83;21121;-87
2022/03/06 03:16:25;;;;;;;80.53;37.00;;;;;;;-1.06;78.52;99576.42;4195500;83;21409;-92
2022/03/06 03:22:27;;;;;;;94.20;40.95;;;;;;;-1.06;78.61;99579.11;4192824;83;21070;-87
2022/03/06 03:28:28;;;;;;;82.67;37.38;;;;;;;-1.08;78.44;99578.61;4190715;83;21104;-90
2022/03/06 03:34:29;;;;;;;77.27;35.97;;;;;;;-1.12;78.86;99577.56;4188920;83;21113;-88
2022/03/06 03:40:31;;;;;;;79.20;37.55;;;;;;;-1.13;78.90;99575.44;4191168;83;21094;-89
2022/03/06 03:46:32;;;;;;;68.75;33.45;;;;;;;-1.13;79.05;99588.06;4183846;83;21056;-89
2022/03/06 03:52:33;;;;;;;82.20;35.43;;;;;;;-1.13;79.05;99588.06;4193872;83;21066;-88
2022/03/06 03:58:35;;;;;;;77.20;32.23;;;;;;;-1.15;79.15;99591.03;4166454;83;21049;-89
2022/03/06 04:04:37;;;;;;;72.37;33.27;;;;;;;-1.15;79.32;99587.00;4136894;84;21022;-88
2022/03/06 04:10:38;;;;;;;84.30;36.57;;;;;;;-1.15;79.28;99591.03;4308140;80;21046;-87
2022/03/06 04:16:40;;;;;;;72.37;36.13;;;;;;;-1.18;79.24;99594.83;4301491;80;21106;-87
2022/03/06 04:22:41;;;;;;;76.10;33.57;;;;;;;-1.20;79.55;99591.08;4300847;80;21003;-88
2022/03/06 04:28:44;;;;;;;72.22;33.00;;;;;;;-1.18;79.59;99589.45;4304198;80;21043;-88
2022/03/06 04:34:45;;;;;;;70.63;33.50;;;;;;;-1.16;79.76;99603.41;4308097;80;21599;-88
2022/03/06 04:40:47;;;;;;;74.23;35.30;;;;;;;-1.16;79.77;99598.81;4302860;80;21063;-86
2022/03/06 04:46:49;;;;;;;70.30;30.43;;;;;;;-1.16;79.79;99600.16;4308434;80;21121;-89
2022/03/06 04:52:50;;;;;;;59.87;29.80;;;;;;;-1.17;79.58;99597.22;4304182;80;21742;-90
2022/03/06 04:58:52;;;;;;;58.43;29.20;;;;;;;-1.19;79.42;99593.23;4309216;80;21089;-89
2022/03/06 05:04:53;;;;;;;70.63;31.77;;;;;;;-1.18;79.35;99601.54;4318484;80;21042;-92
2022/03/06 05:11:00;;;;;;;65.53;30.27;;;;;;;-1.18;79.35;99599.66;4316657;80;21616;-90
2022/03/06 05:17:03;;;;;;;63.23;29.70;;;;;;;-1.20;79.25;99599.14;4322171;80;21099;-87
2022/03/06 05:23:04;;;;;;;66.35;29.80;;;;;;;-1.19;79.45;99602.07;4317116;80;21039;-87
2022/03/06 05:29:06;;;;;;;63.87;30.60;;;;;;;-1.18;79.45;99610.94;4214317;82;42472;-88
2022/03/06 05:35:10;;;;;;;58.73;27.37;;;;;;;-1.19;79.32;99599.95;4253302;82;21078;-89
2022/03/06 05:41:12;;;;;;;68.07;31.93;;;;;;;-1.19;79.57;99606.10;4394442;80;22212;-89
2022/03/06 05:47:13;;;;;;;53.00;27.10;;;;;;;-1.23;79.77;99598.36;4386345;79;20986;-89
2022/03/06 05:53:15;;;;;;;57.03;27.30;;;;;;;-1.17;79.79;99597.75;4367424;79;21022;-87
2022/03/06 05:59:16;;;;;;;54.63;27.60;;;;;;;-1.15;79.54;99599.63;4376403;79;21680;-88
2022/03/06 06:05:18;;;;;;;55.40;26.77;;;;;;;-1.13;79.68;99594.25;4334575;80;21059;-87
2022/03/06 06:11:20;;;;;;;55.05;26.12;;;;;;;-1.10;79.57;99595.02;4347396;80;21097;-88
2022/03/06 06:17:24;;;;;;;56.23;25.82;;;;;;;-1.10;79.58;99596.36;4334811;80;21058;-88
2022/03/06 06:23:27;;;;;;;47.62;24.37;;;;;;;-1.05;79.64;99605.69;4346507;80;21010;-87
2022/03/06 06:29:32;;;;;;;51.50;26.57;;;;;;;-1.01;79.58;99604.59;4340927;80;21016;-88
2022/03/06 06:35:34;;;;;;;49.08;24.25;;;;;;;-0.96;79.59;99604.54;4347113;80;21036;-89
2022/03/06 06:41:41;;;;;;;44.08;21.52;;;;;;;-0.94;79.37;99607.75;4342436;80;21093;-88
2022/03/06 06:47:42;;;;;;;42.03;20.43;;;;;;;-0.91;79.21;99611.99;4306855;80;21590;-87
2022/03/06 06:53:45;;;;;;;38.43;18.70;;;;;;;-0.87;79.07;99618.95;4320603;80;21068;-87
2022/03/06 06:59:46;;;;;;;41.87;18.10;;;;;;;-0.84;78.92;99624.56;4362590;80;21089;-86
2022/03/06 07:05:48;;;;;;;39.95;20.37;;;;;;;-0.82;78.68;99631.00;4369636;80;21058;-88
2022/03/06 07:11:50;;;;;;;39.38;19.67;;;;;;;-0.79;78.67;99627.20;4367091;80;21006;-86
2022/03/06 07:18:01;;;;;;;36.33;19.33;;;;;;;-0.75;78.68;99636.85;4355560;80;21114;-89
2022/03/06 07:24:07;;;;;;;39.30;17.95;;;;;;;-0.74;78.46;99637.09;4377561;80;21585;-88
2022/03/06 07:30:12;;;;;;;36.05;15.90;;;;;;;-0.69;78.39;99628.98;4352583;80;21098;-89
2022/03/06 07:36:13;;;;;;;34.10;15.28;;;;;;;-0.66;78.25;99630.53;4374078;80;21066;-89
2022/03/06 07:42:15;;;;;;;30.32;15.98;;;;;;;-0.69;78.41;99604.78;4260031;82;21011;-90
2022/03/06 07:48:16;;;;;;;28.50;13.22;;;;;;;-0.69;78.41;99604.78;4223879;82;21078;-89
2022/03/06 07:54:18;;;;;;;29.20;14.65;;;;;;;-0.53;77.68;99621.78;4248809;82;21099;-89
2022/03/06 08:00:19;;;;;;;24.30;12.63;;;;;;;-0.47;77.88;99621.98;4257368;82;21002;-89
2022/03/06 08:06:23;;;;;;;27.35;12.23;;;;;;;-0.43;77.57;99616.30;4260052;82;21042;-88
2022/03/06 08:12:26;;;;;;;21.00;10.75;;;;;;;-0.36;77.33;99616.73;4227980;82;21034;-88
2022/03/06 08:18:28;;;;;;;35.88;15.05;;;;;;;-0.30;76.86;99623.64;4258177;82;21015;-87
2022/03/06 08:24:30;;;;;;;17.23;8.73;;;;;;;-0.23;76.87;99605.27;4226239;82;20967;-89
2022/03/06 08:30:32;;;;;;;20.52;9.43;;;;;;;-0.18;76.74;99613.28;4288814;81;21027;-88
2022/03/06 08:36:34;;;;;;;18.20;7.85;;;;;;;-0.15;76.45;99606.50;4231347;82;21009;-89
2022/03/06 08:42:36;;;;;;;24.57;10.45;;;;;;;-0.06;76.18;99602.88;4287521;81;21043;-88
2022/03/06 08:48:38;;;;;;;15.15;7.53;;;;;;;0.00;76.13;99604.96;4290747;81;21042;-88
2022/03/06 08:54:39;;;;;;;12.55;6.97;;;;;;;0.01;75.43;99605.20;4382649;79;21254;-91
2022/03/06 09:00:42;;;;;;;19.62;9.30;;;;;;;0.01;74.91;99598.48;4386664;79;20987;-91
2022/03/06 09:06:44;;;;;;;15.23;8.40;;;;;;;0.03;74.65;99606.50;4383891;80;21022;-91
2022/03/06 09:13:00;;;;;;;18.92;9.88;;;;;;;0.07;74.14;99609.95;4269696;82;21499;-89
2022/03/06 09:19:01;;;;;;;30.77;14.18;;;;;;;0.15;73.91;99610.11;4380899;80;21081;-90
2022/03/06 09:25:03;;;;;;;16.73;9.93;;;;;;;0.25;73.76;99603.21;4375918;80;22201;-90
2022/03/06 09:31:08;;;;;;;19.92;9.85;;;;;;;0.32;73.42;99596.11;4383279;80;21876;-89
2022/03/06 09:37:09;;;;;;;21.52;9.85;;;;;;;0.34;73.33;99599.32;4378805;80;21045;-96
2022/03/06 09:43:16;;;;;;;18.07;9.20;;;;;;;0.45;72.80;99603.45;4376798;80;21108;-88
2022/03/06 09:49:17;;;;;;;;;;;;;;;0.49;72.51;99599.06;4386889;80;20983;-87
2022/03/06 09:55:19;;;;;;;15.65;7.15;;;;;;;0.53;72.08;99594.70;4378138;80;20545;-91
2022/03/06 10:01:20;;;;;;;13.90;6.58;;;;;;;0.57;70.07;99596.52;4337402;80;22221;-89
2022/03/06 10:07:25;;;;;;;11.22;6.75;;;;;;;0.60;71.30;99593.23;4297955;81;21853;-89
2022/03/06 10:13:33;;;;;;;10.93;6.42;;;;;;;0.63;71.13;99588.59;4301646;81;21039;-91
2022/03/06 10:19:54;;;;;;;18.92;9.15;;;;;;;0.82;70.92;99594.73;4300956;81;21596;-89
2022/03/06 10:26:09;;;;;;;10.40;6.30;;;;;;;0.92;70.82;99593.75;4301439;81;21059;-90
2022/03/06 10:32:11;;;;;;;16.30;8.23;;;;;;;0.98;70.34;99585.81;4302660;81;21046;-92
2022/03/06 10:38:31;;;;;;;19.00;8.35;;;;;;;1.08;70.38;99590.47;4300790;81;21074;-90
2022/03/06 10:44:47;;;;;;;16.67;8.20;;;;;;;1.10;69.88;99577.49;4291821;81;21047;-93
2022/03/06 10:50:55;;;;;;;22.07;10.03;;;;;;;1.13;69.71;99574.73;4294662;81;21034;-92
2022/03/06 10:57:02;;;;;;;18.10;8.78;;;;;;;1.21;69.11;99570.00;4271929;81;21075;-90
2022/03/06 11:03:06;;;;;;;12.82;6.97;;;;;;;1.24;68.12;99570.20;4365811;80;21018;-89
2022/03/06 11:09:13;;;;;;;14.63;6.92;;;;;;;1.31;68.28;99565.22;4377628;80;21026;-92
2022/03/06 11:15:23;;;;;;;17.87;8.93;;;;;;;1.32;68.35;99567.34;4379882;80;21585;-90
2022/03/06 11:21:27;;;;;;;16.93;7.20;;;;;;;1.29;67.94;99552.58;4379015;80;21003;-90
2022/03/06 11:27:58;;;;;;;9.83;6.33;;;;;;;1.29;67.82;99549.08;4378274;80;21006;-94
2022/03/06 11:34:03;;;;;;;10.35;6.83;;;;;;;1.35;67.69;99537.88;4378240;80;21385;-92
2022/03/06 11:40:05;;;;;;;11.68;6.20;;;;;;;1.35;67.39;99527.63;4370932;80;21034;-92
2022/03/06 11:46:16;;;;;;;15.25;7.12;;;;;;;1.37;66.44;99524.91;4379829;80;21070;-90
2022/03/06 11:52:33;;;;;;;11.68;6.75;;;;;;;1.27;66.60;99521.05;4382553;80;21022;-90
2022/03/06 11:58:54;;;;;;;10.55;6.50;;;;;;;1.24;66.29;99512.22;4379375;80;21046;-91
2022/03/06 12:04:58;;;;;;;10.15;5.95;;;;;;;1.25;66.00;99516.50;4374353;81;21027;-89
2022/03/06 12:11:00;;;;;;;8.73;6.10;;;;;;;1.26;65.91;99506.52;4375533;80;21059;-88
2022/03/06 12:17:07;;;;;;;11.70;7.05;;;;;;;1.24;65.36;99499.27;4381112;80;21065;-88
2022/03/06 12:23:20;;;;;;;12.13;6.25;;;;;;;1.27;65.58;99494.08;4377623;80;21094;-89
2022/03/06 12:29:53;;;;;;;11.08;6.87;;;;;;;1.26;65.18;99486.30;4242187;83;21051;-89
2022/03/06 12:36:21;;;;;;;11.30;6.30;;;;;;;1.29;65.18;99481.64;4250235;83;21559;-89
2022/03/06 12:42:31;;;;;;;11.28;6.80;;;;;;;1.28;64.86;99478.17;4253360;82;21051;-89
2022/03/06 12:48:34;;;;;;;13.38;7.50;;;;;;;1.30;64.86;99475.95;4242924;82;21578;-89
2022/03/06 12:54:37;;;;;;;11.50;6.83;;;;;;;1.22;64.64;99476.66;4265990;82;21170;-90
2022/03/06 13:00:38;;;;;;;13.08;8.00;;;;;;;1.14;64.20;99467.92;4379889;80;21054;-90
2022/03/06 13:06:40;;;;;;;9.95;6.42;;;;;;;1.15;64.50;99471.42;4378793;80;21022;-91
2022/03/06 13:12:45;;;;;;;13.25;7.10;;;;;;;1.15;64.28;99466.03;4378543;80;20980;-90
2022/03/06 13:18:47;;;;;;;12.55;7.60;;;;;;;1.14;63.94;99461.75;4381642;80;21452;-89
2022/03/06 13:24:52;;;;;;;16.57;8.35;;;;;;;1.12;64.00;99461.25;4380068;80;21057;-88
2022/03/06 13:30:59;;;;;;;11.18;6.28;;;;;;;1.08;63.98;99467.01;4376256;80;20963;-90
2022/03/06 13:37:01;;;;;;;11.10;6.25;;;;;;;1.10;63.74;99456.70;4377618;80;21054;-90
2022/03/06 13:43:02;;;;;;;13.43;7.58;;;;;;;1.09;63.58;99457.80;4377882;80;21077;-92
2022/03/06 13:49:17;;;;;;;12.85;6.65;;;;;;;1.07;63.35;99458.11;4358121;80;21018;-88
2022/03/06 13:55:21;;;;;;;9.90;6.30;;;;;;;0.96;62.58;99457.27;4380558;80;21094;-94
2022/03/06 14:01:25;;;;;;;14.35;8.40;;;;;;;0.78;61.77;99456.83;4378879;79;20991;-88
2022/03/06 14:07:27;;;;;;;14.53;8.13;;;;;;;0.85;62.55;99455.87;4374905;79;21074;-88
2022/03/06 14:13:41;;;;;;;12.73;7.53;;;;;;;0.92;62.47;99446.84;4386587;79;21085;-90
2022/03/06 14:20:01;;;;;;;13.60;7.80;;;;;;;0.96;62.40;99447.28;4393486;79;21074;-90
2022/03/06 14:26:03;;;;;;;12.30;6.67;;;;;;;0.99;62.49;99441.83;4375247;79;21054;-89
2022/03/06 14:32:07;;;;;;;16.70;7.80;;;;;;;0.91;62.37;99446.03;4377514;79;21011;-90
2022/03/06 14:38:10;;;;;;;11.80;7.15;;;;;;;0.92;62.39;99445.50;4384594;79;21074;-94
2022/03/06 14:44:15;;;;;;;13.53;7.10;;;;;;;0.92;62.37;99447.66;4383898;79;21014;-93
2022/03/06 14:50:16;;;;;;;11.30;7.00;;;;;;;0.90;62.15;99446.34;4367211;79;21041;-92
2022/03/06 14:56:19;;;;;;;16.50;7.92;;;;;;;0.85;62.01;99443.73;4380598;79;21086;-90
2022/03/06 15:02:21;;;;;;;44.85;21.40;;;;;;;0.81;62.27;99450.84;4384592;79;21086;-90
2022/03/06 15:08:22;;;;;;;21.90;12.15;;;;;;;0.80;62.20;99443.87;4371437;79;21014;-90
2022/03/06 15:14:29;;;;;;;14.50;8.35;;;;;;;0.75;62.04;99454.73;4391462;79;21063;-90
2022/03/06 15:20:34;;;;;;;13.98;8.33;;;;;;;0.74;61.97;99443.16;4372328;79;21606;-89
2022/03/06 15:26:37;;;;;;;11.63;7.63;;;;;;;0.74;62.01;99444.50;4371664;79;21010;-89
2022/03/06 15:32:38;;;;;;;12.28;7.25;;;;;;;0.70;62.05;99445.41;4369309;79;21050;-91
2022/03/06 15:38:41;;;;;;;31.30;15.40;;;;;;;0.69;62.42;99450.55;4393179;79;21054;-90
2022/03/06 15:44:45;;;;;;;25.48;14.10;;;;;;;0.61;62.12;99446.63;4383301;79;21580;-92
2022/03/06 15:50:47;;;;;;;16.42;9.75;;;;;;;0.59;62.46;99446.69;4276275;79;72321;-87
2022/03/06 15:56:48;;;;;;;14.85;8.20;;;;;;;0.52;62.49;99450.34;4215052;83;21050;-87
2022/03/06 16:02:50;;;;;;;18.40;9.40;;;;;;;0.40;62.35;99450.01;4211281;83;21074;-87
2022/03/06 16:08:51;;;;;;;18.62;10.45;;;;;;;0.38;62.18;99454.89;4217952;83;21570;-87
2022/03/06 16:14:52;;;;;;;26.70;12.80;;;;;;;0.37;62.28;99455.99;4217457;83;21058;-88
2022/03/06 16:20:54;;;;;;;17.50;10.38;;;;;;;0.32;62.25;99460.92;4238868;82;21007;-87
2022/03/06 16:26:55;;;;;;;16.82;9.38;;;;;;;0.23;62.26;99461.37;4216640;83;21094;-88
2022/03/06 16:32:57;;;;;;;16.82;8.18;;;;;;;0.16;62.31;99460.94;4216215;83;21649;-87
2022/03/06 16:39:01;;;;;;;16.57;9.08;;;;;;;0.10;62.18;99468.05;4213314;83;21680;-87
2022/03/06 16:45:05;;;;;;;39.83;13.95;;;;;;;0.03;62.23;99461.15;4213073;83;21058;-87
2022/03/06 16:51:07;;;;;;;18.35;8.03;;;;;;;-0.08;62.29;99462.41;4187846;83;20995;-88
2022/03/06 16:57:16;;;;;;;21.35;9.68;;;;;;;-0.08;62.29;99462.41;4226927;82;21493;-87
2022/03/06 17:03:17;;;;;;;19.25;9.05;;;;;;;-0.10;62.18;99461.92;4131505;84;21106;-87
2022/03/06 17:09:19;;;;;;;97.15;31.48;;;;;;;-0.16;62.10;99459.03;4167493;83;21065;-87
2022/03/06 17:15:23;;;;;;;35.20;16.77;;;;;;;-0.21;62.17;99463.71;4173728;84;21075;-87
2022/03/06 17:21:25;;;;;;;25.50;14.05;;;;;;;-0.25;62.19;99468.88;4188487;83;21616;-87
2022/03/06 17:27:26;;;;;;;26.37;12.60;;;;;;;-0.27;62.08;99479.12;4146308;84;21035;-88
2022/03/06 17:33:28;;;;;;;24.37;13.65;;;;;;;-0.43;62.15;99460.29;4175732;84;21669;-88
2022/03/06 17:39:30;;;;;;;20.75;10.50;;;;;;;-0.36;62.33;99477.41;4164480;84;21031;-88
2022/03/06 17:45:31;;;;;;;13.40;8.83;;;;;;;-0.36;62.33;99477.41;4171516;84;20979;-87
2022/03/06 17:51:33;;;;;;;21.50;9.10;;;;;;;-0.36;62.15;99472.03;4172758;84;21044;-87
2022/03/06 17:57:34;;;;;;;14.18;8.53;;;;;;;-0.39;62.21;99472.59;4224309;83;21480;-87
2022/03/06 18:03:35;;;;;;;15.78;9.18;;;;;;;-0.42;62.17;99475.86;4226165;83;21126;-88
2022/03/06 18:09:37;;;;;;;16.70;8.03;;;;;;;-0.46;62.18;99482.92;4154468;83;21101;-86
2022/03/06 18:15:40;;;;;;;14.03;8.03;;;;;;;-0.49;62.19;99480.82;4167720;83;21098;-87
2022/03/06 18:21:41;;;;;;;21.42;10.38;;;;;;;-0.51;62.17;99481.65;4165694;84;20995;-87
2022/03/06 18:27:42;;;;;;;21.70;11.43;;;;;;;-0.52;62.19;99484.09;4169717;84;21485;-87
2022/03/06 18:33:44;;;;;;;27.15;12.65;;;;;;;-0.52;62.29;99479.49;4171608;84;21744;-87
2022/03/06 18:39:46;;;;;;;26.80;12.68;;;;;;;-0.50;62.36;99476.55;4168097;84;21043;-87
2022/03/06 18:45:49;;;;;;;47.83;18.98;;;;;;;-0.44;63.03;99475.37;4173048;84;21007;-87
2022/03/06 18:51:54;;;;;;;46.02;15.68;;;;;;;-0.46;62.49;99480.23;4174526;83;21062;-87
2022/03/06 18:57:56;;;;;;;45.07;17.27;;;;;;;-0.49;62.56;99485.66;4174147;84;22390;-87
2022/03/06 19:03:58;;;;;;;24.75;14.40;;;;;;;-0.53;62.39;99485.98;4217468;83;21613;-87
2022/03/06 19:10:00;;;;;;;36.48;14.03;;;;;;;-0.53;62.39;99485.98;4121300;84;21120;-87
2022/03/06 19:16:02;;;;;;;26.95;12.65;;;;;;;-0.55;62.49;99481.98;4173993;83;21018;-86
2022/03/06 19:22:04;;;;;;;22.50;13.08;;;;;;;-0.53;63.13;99482.48;4167700;83;21499;-86
2022/03/06 19:28:05;;;;;;;27.40;13.45;;;;;;;-0.56;62.69;99482.52;4058301;82;9999809;-87
2022/03/06 19:34:06;;;;;;;24.43;11.55;;;;;;;-0.55;62.83;99479.30;4169419;83;21062;-87
2022/03/06 19:40:09;;;;;;;24.72;12.15;;;;;;;-0.65;62.87;99464.64;4218003;82;21007;-87
2022/03/06 19:46:11;;;;;;;25.62;12.28;;;;;;;-0.65;62.87;99464.64;4171586;84;21083;-86
2022/03/06 19:52:14;;;;;;;29.72;14.80;;;;;;;-0.63;62.81;99475.91;4219990;82;21133;-86
2022/03/06 19:58:15;;;;;;;18.65;10.28;;;;;;;-0.66;63.04;99468.43;4229332;82;21065;-86
2022/03/06 20:04:20;;;;;;;27.77;14.20;;;;;;;-0.71;63.00;99475.22;4192860;82;21136;-86
2022/03/06 20:10:23;;;;;;;24.00;13.32;;;;;;;-0.65;64.08;99480.77;4211158;82;21066;-87
2022/03/06 20:16:25;;;;;;;27.75;14.03;;;;;;;-0.66;63.74;99484.00;4158639;84;22374;-86
2022/03/06 20:22:26;;;;;;;25.45;12.82;;;;;;;-0.66;64.11;99484.56;4166634;84;21734;-87
2022/03/06 20:28:28;;;;;;;27.00;13.15;;;;;;;-0.65;63.15;99491.53;4215071;83;21066;-87
2022/03/06 20:34:29;;;;;;;24.75;12.82;;;;;;;-0.62;62.90;99496.33;4215898;83;21011;-87
2022/03/06 20:40:31;;;;;;;21.68;11.08;;;;;;;-0.66;63.00;99495.31;4214865;83;21015;-86
2022/03/06 20:46:32;;;;;;;23.05;12.23;;;;;;;-0.77;62.93;99493.31;4218755;83;21041;-86
2022/03/06 20:52:33;;;;;;;23.95;12.68;;;;;;;-0.80;62.63;99505.18;4179884;82;21197;-86
2022/03/06 20:58:35;;;;;;;25.40;13.53;;;;;;;-0.79;62.94;99501.39;4138640;84;21070;-87
2022/03/06 21:04:41;;;;;;;30.72;15.88;;;;;;;-0.80;63.22;99495.77;4119286;85;21071;-88
2022/03/06 21:10:43;;;;;;;33.53;15.58;;;;;;;-0.79;63.87;99496.83;4117542;85;21048;-87
2022/03/06 21:16:45;;;;;;;32.63;15.63;;;;;;;-0.81;64.10;99490.13;4131010;85;22069;-87
2022/03/06 21:22:46;;;;;;;29.42;16.30;;;;;;;-0.82;64.89;99488.53;4131632;85;21116;-87
2022/03/06 21:28:50;;;;;;;30.90;15.37;;;;;;;-0.84;63.91;99494.20;4133282;85;21038;-87
2022/03/06 21:34:51;;;;;;;32.93;18.00;;;;;;;-0.86;65.23;99495.59;4130397;85;21471;-87
2022/03/06 21:40:52;;;;;;;27.50;15.70;;;;;;;-0.88;65.23;99499.09;4130235;85;21540;-87
2022/03/06 21:46:54;;;;;;;35.08;16.73;;;;;;;-0.90;64.52;99495.36;4130606;83;21084;-87
2022/03/06 21:52:56;;;;;;;32.60;17.27;;;;;;;-0.90;65.03;99501.27;4158600;83;21042;-88
2022/03/06 21:59:10;;;;;;;62.67;24.98;;;;;;;-0.90;64.16;99498.05;4169956;83;21046;-88
2022/03/06 22:05:01;;;;;;;74.27;29.02;;;;;;;-0.90;63.75;99503.95;4208956;83;21592;-88
2022/03/06 22:11:03;;;;;;;59.40;22.73;;;;;;;-0.90;63.45;99502.08;4143051;85;21522;-89
2022/03/06 22:17:05;;;;;;;40.83;20.40;;;;;;;-0.91;63.47;99499.11;4178732;84;22168;-87
2022/03/06 22:23:06;;;;;;;36.55;19.30;;;;;;;-0.91;63.47;99502.36;4181596;83;21063;-87
2022/03/06 22:29:07;;;;;;;70.65;25.25;;;;;;;-0.93;63.44;99506.68;4183623;83;22414;-87
2022/03/06 22:35:09;;;;;;;52.50;22.90;;;;;;;-0.96;63.43;99497.85;4179969;84;21605;-87
2022/03/06 22:41:10;;;;;;;67.35;28.57;;;;;;;-0.95;63.28;99503.47;4205585;83;21589;-88
2022/03/06 22:47:11;;;;;;;50.78;23.95;;;;;;;-0.95;63.03;99491.38;4179573;84;21108;-87
2022/03/06 22:53:15;;;;;;;47.85;23.02;;;;;;;-0.95;63.03;99491.38;4125544;84;21067;-87
2022/03/06 22:59:16;;;;;;;65.50;29.63;;;;;;;-0.95;63.03;99494.60;4112039;85;21011;-87
2022/03/06 23:11:37;;;;;;;52.00;25.20;;;;;;;-0.93;63.27;99489.75;4149863;84;21038;-87
2022/03/06 23:17:39;;;;;;;48.77;23.03;;;;;;;-0.91;63.45;99486.23;4100012;85;21615;-88
2022/03/06 23:23:41;;;;;;;61.80;26.52;;;;;;;-0.95;63.38;99486.00;4081176;85;21548;-88
2022/03/06 23:29:42;;;;;;;71.87;28.47;;;;;;;-0.98;63.13;99483.09;4123144;85;21045;-87
2022/03/06 23:35:43;;;;;;;80.47;28.63;;;;;;;-1.01;62.98;99485.01;4121789;85;21930;-87
2022/03/06 23:41:45;;;;;;;62.83;26.65;;;;;;;-1.02;63.06;99486.91;4117827;85;20983;-88
2022/03/06 23:47:47;;;;;;;61.07;26.87;;;;;;;-1.03;63.35;99479.92;4171139;84;21053;-87
2022/03/06 23:53:48;;;;;;;72.00;28.15;;;;;;;-1.05;63.66;99485.34;4216850;83;21598;-88
2022/03/06 23:59:49;;;;;;;57.50;26.80;;;;;;;-1.08;64.06;99487.26;4227886;83;21332;-87
